This is the latest recevied weather packets stored in our database for station/object HS3PIK-2. If no packets are shown the sender has not sent any weather packets the latest 10 day(s).
| Time | Temp. | Humidity | Pressure | Rain* | Wind** | Luminosity | Snow |
|---|---|---|---|---|---|---|---|
| 1777544188 | 32.22° C | 64% | - | - | - | 0 W/m² | - |
| 1777543860 | 32.78° C | 63% | - | - | - | 0 W/m² | - |
| 1777543530 | 33.33° C | 64% | - | - | - | 0 W/m² | - |
| 1777543200 | 34.44° C | 59% | - | - | - | 0 W/m² | - |
| 1777542873 | 35.56° C | 54% | - | - | - | 0 W/m² | - |
| 1777542550 | 37.78° C | 48% | - | - | - | 0 W/m² | - |
| 1777542225 | 38.89° C | 50% | - | - | - | 0 W/m² | - |
| 1777541893 | 39.44° C | 50% | - | - | - | 0 W/m² | - |
| 1777541563 | 40.56° C | 48% | - | - | - | 0 W/m² | - |
| 1777541238 | 41.11° C | 47% | - | - | - | 0 W/m² | - |
| 1777540910 | 41.67° C | 44% | - | - | - | 0 W/m² | - |
| 1777540583 | 41.67° C | 44% | - | - | - | 0 W/m² | - |
| 1777540253 | 41.11° C | 44% | - | - | - | 0 W/m² | - |
| 1777539928 | 41.11° C | 43% | - | - | - | 0 W/m² | - |
| 1777539600 | 41.11° C | 45% | - | - | - | 0 W/m² | - |
| 1777539267 | 40.56° C | 47% | - | - | - | 0 W/m² | - |
| 1777538937 | 40.56° C | 46% | - | - | - | 0 W/m² | - |
| 1777538610 | 40.56° C | 47% | - | - | - | 0 W/m² | - |
| 1777538285 | 40.56° C | 48% | - | - | - | 0 W/m² | - |
| 1777537955 | 40° C | 49% | - | - | - | 0 W/m² | - |
| 1777537629 | 40° C | 48% | - | - | - | 0 W/m² | - |
| 1777537297 | 40.56° C | 48% | - | - | - | 0 W/m² | - |
| 1777536973 | 40° C | 49% | - | - | - | 0 W/m² | - |
| 1777536648 | 40° C | 50% | - | - | - | 0 W/m² | - |
| 1777536317 | 39.44° C | 52% | - | - | - | 0 W/m² | - |
* Rain since midnight (hover to see other rain measurements)
** Current wind speed in m/s (hover to see current wind gust speed)